createdAt,value
2024-01-11T00:00:52.407Z,102462.28
2024-01-11T00:03:20.763Z,102468.56
2024-01-11T00:05:51.214Z,102464.22
2024-01-11T00:08:20.007Z,102454.53
2024-01-11T00:10:48.664Z,102445.72
2024-01-11T00:13:16.832Z,102444.47
2024-01-11T00:15:45.899Z,102447.31
2024-01-11T00:18:14.619Z,102458.13
2024-01-11T00:20:43.623Z,102452.22
2024-01-11T00:23:13.664Z,102450.53
2024-01-11T00:25:42.014Z,102465.44
2024-01-11T00:28:10.915Z,102469.28
2024-01-11T00:30:43.916Z,102465.81
2024-01-11T00:33:12.654Z,102469.09
2024-01-11T00:35:42.375Z,102449.38
2024-01-11T00:38:11.238Z,102430.94
2024-01-11T00:40:42.084Z,102445.34
2024-01-11T00:43:10.753Z,102454.41
2024-01-11T00:45:39.780Z,102454.94
2024-01-11T00:48:09.358Z,102459.47
2024-01-11T00:50:37.770Z,102451.94
2024-01-11T00:53:06.809Z,102432.94
2024-01-11T00:55:36.958Z,102469.59
2024-01-11T00:58:06.868Z,102472.16
2024-01-11T01:00:35.256Z,102483.78
2024-01-11T01:03:03.556Z,102482.00
2024-01-11T01:05:32.227Z,102480.03
2024-01-11T01:08:00.564Z,102476.53
2024-01-11T01:10:29.262Z,102471.16
2024-01-11T01:12:57.992Z,102474.63
2024-01-11T01:15:27.711Z,102459.22
2024-01-11T01:17:55.687Z,102449.91
2024-01-11T01:20:24.709Z,102466.78
2024-01-11T01:22:53.239Z,102469.59
2024-01-11T01:25:21.585Z,102449.22
2024-01-11T01:27:50.578Z,102472.84
2024-01-11T01:30:19.203Z,102427.34
2024-01-11T01:32:50.271Z,102457.19
2024-01-11T01:35:19.000Z,102467.72
2024-01-11T01:37:47.969Z,102467.72
2024-01-11T01:40:16.953Z,102455.78
2024-01-11T01:42:46.652Z,102466.16
2024-01-11T01:45:16.900Z,102462.66
2024-01-11T01:47:46.341Z,102452.06
2024-01-11T01:50:16.880Z,102467.59
2024-01-11T01:52:45.614Z,102462.47
2024-01-11T01:55:14.833Z,102465.16
2024-01-11T01:57:45.432Z,102474.16
2024-01-11T02:00:15.106Z,102478.66
2024-01-11T02:02:46.044Z,102481.56
2024-01-11T02:05:18.907Z,102484.38
2024-01-11T02:07:47.748Z,102480.59
2024-01-11T02:10:15.916Z,102479.69
2024-01-11T02:12:44.501Z,102469.03
2024-01-11T02:15:12.941Z,102465.47
2024-01-11T02:17:42.973Z,102466.16
2024-01-11T02:20:13.082Z,102468.00
2024-01-11T02:22:49.264Z,102457.41
2024-01-11T02:25:19.138Z,102477.19
2024-01-11T02:27:49.059Z,102471.78
2024-01-11T02:30:20.618Z,102472.72
2024-01-11T02:32:51.251Z,102462.06
2024-01-11T02:35:21.443Z,102471.78
2024-01-11T02:37:50.629Z,102477.91
2024-01-11T02:40:21.534Z,102481.50
2024-01-11T02:42:48.796Z,102467.16
2024-01-11T02:45:17.378Z,102467.06
2024-01-11T02:47:45.641Z,102485.16
2024-01-11T02:50:14.402Z,102465.97
2024-01-11T02:52:43.116Z,102479.28
2024-01-11T02:55:11.598Z,102468.53
2024-01-11T02:57:41.968Z,102428.00
2024-01-11T03:00:10.943Z,102469.72
2024-01-11T03:02:40.147Z,102470.81
2024-01-11T03:05:08.845Z,102481.63
2024-01-11T03:07:37.705Z,102476.28
2024-01-11T03:10:06.646Z,102486.28
2024-01-11T03:12:34.740Z,102494.97
2024-01-11T03:15:05.203Z,102480.91
2024-01-11T03:17:33.922Z,102471.84
2024-01-11T03:20:02.470Z,102464.88
2024-01-11T03:22:30.702Z,102477.19
2024-01-11T03:24:58.716Z,102471.97
2024-01-11T03:27:26.807Z,102444.78
2024-01-11T03:29:54.934Z,102468.53
2024-01-11T03:32:24.788Z,102466.81
2024-01-11T03:34:53.451Z,102454.63
2024-01-11T03:37:21.480Z,102463.09
2024-01-11T03:39:49.749Z,102470.28
2024-01-11T03:42:18.571Z,102464.13
2024-01-11T03:44:47.261Z,102488.25
2024-01-11T03:47:15.523Z,102488.41
2024-01-11T03:49:45.163Z,102485.75
2024-01-11T03:52:15.073Z,102492.56
2024-01-11T03:54:43.403Z,102491.91
2024-01-11T03:57:11.763Z,102484.69
2024-01-11T03:59:40.004Z,102489.94
2024-01-11T04:02:08.254Z,102502.97
2024-01-11T04:04:36.378Z,102502.97
2024-01-11T04:07:06.220Z,102507.44
2024-01-11T04:09:34.893Z,102503.94
2024-01-11T04:12:04.819Z,102510.91
2024-01-11T04:14:33.734Z,102507.34
2024-01-11T04:17:03.731Z,102517.88
2024-01-11T04:19:32.061Z,102509.03
2024-01-11T04:22:00.267Z,102493.13
2024-01-11T04:24:29.816Z,102498.44
2024-01-11T04:26:58.339Z,102496.66
2024-01-11T04:29:26.678Z,102489.88
2024-01-11T04:31:55.042Z,102503.00
2024-01-11T04:34:23.145Z,102498.38
2024-01-11T04:36:51.670Z,102505.38
2024-01-11T04:39:19.957Z,102513.53
2024-01-11T04:41:49.351Z,102512.53
2024-01-11T04:44:17.733Z,102519.94
2024-01-11T04:46:46.094Z,102504.56
2024-01-11T04:49:14.536Z,102511.94
2024-01-11T04:51:42.932Z,102515.41
2024-01-11T04:54:11.395Z,102517.53
2024-01-11T04:56:39.704Z,102515.63
2024-01-11T04:59:09.283Z,102496.13
2024-01-11T05:01:37.394Z,102486.66
2024-01-11T05:04:06.087Z,102479.75
2024-01-11T05:06:34.321Z,102478.69
2024-01-11T05:09:03.011Z,102479.25
2024-01-11T05:11:31.210Z,102477.56
2024-01-11T05:13:59.504Z,102477.63
2024-01-11T05:16:30.505Z,102473.41
2024-01-11T05:19:00.087Z,102485.28
2024-01-11T05:21:28.214Z,102500.22
2024-01-11T05:23:56.229Z,102496.81
2024-01-11T05:26:24.323Z,102500.38
2024-01-11T05:28:55.157Z,102493.28
2024-01-11T05:31:23.717Z,102487.13
2024-01-11T05:33:53.681Z,102500.25
2024-01-11T05:36:22.758Z,102503.72
2024-01-11T05:38:52.439Z,102499.22
2024-01-11T05:41:20.999Z,102515.31
2024-01-11T05:43:49.694Z,102507.59
2024-01-11T05:46:18.102Z,102510.19
2024-01-11T05:48:47.313Z,102520.78
2024-01-11T05:51:17.459Z,102546.56
2024-01-11T05:53:46.014Z,102535.34
2024-01-11T05:56:14.805Z,102546.47
2024-01-11T05:58:43.881Z,102557.69
2024-01-11T06:01:12.850Z,102580.59
2024-01-11T06:03:43.057Z,102581.59
2024-01-11T06:06:11.683Z,102577.41
2024-01-11T06:08:43.985Z,102568.47
2024-01-11T06:11:13.480Z,102571.53
2024-01-11T06:13:42.768Z,102551.13
2024-01-11T06:16:13.426Z,102552.94
2024-01-11T06:18:42.177Z,102533.75
2024-01-11T06:21:10.514Z,102531.13
2024-01-11T06:23:39.584Z,102528.63
2024-01-11T06:26:10.248Z,102517.31
2024-01-11T06:28:39.177Z,102543.56
2024-01-11T06:31:07.792Z,102543.38
2024-01-11T06:33:38.439Z,102553.06
2024-01-11T06:36:08.475Z,102551.28
2024-01-11T06:38:37.337Z,102534.56
2024-01-11T06:41:05.801Z,102525.59
2024-01-11T06:43:35.986Z,102529.13
2024-01-11T06:46:06.462Z,102519.47
2024-01-11T06:48:35.554Z,102520.09
2024-01-11T06:51:04.535Z,102511.94
2024-01-11T06:53:35.442Z,102500.69
2024-01-11T06:56:04.592Z,102508.59
2024-01-11T06:58:35.770Z,102521.06
2024-01-11T07:01:07.935Z,102534.41
2024-01-11T07:03:38.629Z,102515.16
2024-01-11T07:06:08.978Z,102531.88
2024-01-11T07:08:37.775Z,102515.78
2024-01-11T07:11:06.813Z,102530.75
2024-01-11T07:13:35.589Z,102530.97
2024-01-11T07:16:05.656Z,102539.66
2024-01-11T07:18:35.541Z,102545.72
2024-01-11T07:21:04.709Z,102548.31
2024-01-11T07:23:32.992Z,102547.53
2024-01-11T07:26:01.254Z,102553.63
2024-01-11T07:28:29.627Z,102550.03
2024-01-11T07:30:58.022Z,102507.03
2024-01-11T07:33:26.868Z,102552.84
2024-01-11T07:35:58.068Z,102563.59
2024-01-11T07:38:27.870Z,102537.31
2024-01-11T07:40:56.600Z,102551.00
2024-01-11T07:43:31.486Z,102553.63
2024-01-11T07:46:00.324Z,102552.47
2024-01-11T07:48:29.140Z,102531.34
2024-01-11T07:51:00.010Z,102530.16
2024-01-11T07:53:29.265Z,102518.03
2024-01-11T07:55:57.377Z,102537.50
2024-01-11T07:58:25.721Z,102576.31
2024-01-11T08:00:55.663Z,102554.38
2024-01-11T08:03:24.644Z,102558.31
2024-01-11T08:05:53.100Z,102571.72
2024-01-11T08:08:23.230Z,102568.81
2024-01-11T08:10:51.477Z,102561.06
2024-01-11T08:13:19.771Z,102559.72
2024-01-11T08:15:47.914Z,102560.34
2024-01-11T08:18:16.523Z,102564.06
2024-01-11T08:20:44.851Z,102572.81
2024-01-11T08:23:13.194Z,102580.56
2024-01-11T08:25:43.070Z,102571.88
2024-01-11T08:28:12.064Z,102609.09
2024-01-11T08:30:40.405Z,102600.47
2024-01-11T08:33:08.570Z,102590.03
2024-01-11T08:35:37.506Z,102589.13
2024-01-11T08:38:05.993Z,102581.94
2024-01-11T08:40:34.154Z,102594.84
2024-01-11T08:43:04.391Z,102598.28
2024-01-11T08:45:32.698Z,102600.91
2024-01-11T08:48:01.976Z,102606.69
2024-01-11T08:50:30.440Z,102572.50
2024-01-11T08:52:58.508Z,102611.84
2024-01-11T08:55:27.713Z,102608.50
2024-01-11T08:57:55.874Z,102603.56
2024-01-11T09:00:25.528Z,102597.19
2024-01-11T09:02:53.957Z,102584.91
2024-01-11T09:05:22.695Z,102580.31
2024-01-11T09:07:52.310Z,102561.56
2024-01-11T09:10:21.934Z,102560.34
2024-01-11T09:12:49.968Z,102565.41
2024-01-11T09:15:18.391Z,102554.63
2024-01-11T09:17:48.188Z,102567.00
2024-01-11T09:20:17.788Z,102563.28
2024-01-11T09:22:46.632Z,102570.75
2024-01-11T09:25:14.983Z,102561.34
2024-01-11T09:27:43.450Z,102560.00
2024-01-11T09:30:12.272Z,102560.41
2024-01-11T09:32:40.748Z,102564.22
2024-01-11T09:35:11.984Z,102562.09
2024-01-11T09:37:43.890Z,102561.75
2024-01-11T09:40:12.746Z,102570.22
2024-01-11T09:42:42.023Z,102567.66
2024-01-11T09:45:13.511Z,102591.72
2024-01-11T09:47:42.360Z,102583.84
2024-01-11T09:50:16.213Z,102589.75
2024-01-11T09:52:48.760Z,102606.72
2024-01-11T09:55:17.685Z,102606.78
2024-01-11T09:57:47.809Z,102591.59
2024-01-11T10:00:19.895Z,102581.94
2024-01-11T10:02:48.736Z,102581.94
2024-01-11T10:05:20.555Z,102581.63
2024-01-11T10:07:49.144Z,102564.28
2024-01-11T10:10:18.142Z,102580.00
2024-01-11T10:12:46.732Z,102574.75
2024-01-11T10:15:15.601Z,102580.72
2024-01-11T10:17:45.385Z,102566.81
2024-01-11T10:20:18.312Z,102567.03
2024-01-11T10:22:49.372Z,102551.84
2024-01-11T10:25:19.883Z,102547.75
2024-01-11T10:27:48.155Z,102559.47
2024-01-11T10:30:18.653Z,102567.47
2024-01-11T10:32:48.088Z,102565.66
2024-01-11T10:35:18.646Z,102567.72
2024-01-11T10:37:54.922Z,102570.59
2024-01-11T10:40:26.817Z,102561.00
2024-01-11T10:42:56.004Z,102560.50
2024-01-11T10:45:28.298Z,102564.75
2024-01-11T10:48:01.469Z,102557.50
2024-01-11T10:50:36.510Z,102557.88
2024-01-11T10:53:19.846Z,102565.09
2024-01-11T10:55:49.470Z,102560.63
2024-01-11T10:58:18.663Z,102553.34
2024-01-11T11:00:50.629Z,102536.69
2024-01-11T11:03:21.714Z,102537.84
2024-01-11T11:05:52.722Z,102534.56
2024-01-11T11:08:22.934Z,102540.59
2024-01-11T11:10:53.527Z,102538.13
2024-01-11T11:13:22.236Z,102546.94
2024-01-11T11:15:50.952Z,102538.75
2024-01-11T11:18:20.578Z,102535.69
2024-01-11T11:20:49.418Z,102543.97
2024-01-11T11:23:19.637Z,102558.50
2024-01-11T11:25:50.599Z,102546.31
2024-01-11T11:28:20.773Z,102533.91
2024-01-11T11:30:51.377Z,102557.00
2024-01-11T11:33:21.634Z,102556.97
2024-01-11T11:35:51.079Z,102533.53
2024-01-11T11:38:21.020Z,102533.66
2024-01-11T11:40:53.251Z,102541.47
2024-01-11T11:43:23.347Z,102545.38
2024-01-11T11:45:53.068Z,102536.31
2024-01-11T11:48:53.758Z,102534.03
2024-01-11T11:51:24.738Z,102547.34
2024-01-11T11:53:55.449Z,102535.50
2024-01-11T11:56:25.896Z,102527.03
2024-01-11T11:58:56.547Z,102528.72
2024-01-11T12:01:25.215Z,102533.91
2024-01-11T12:03:54.707Z,102517.97
2024-01-11T12:06:26.112Z,102533.34
2024-01-11T12:08:57.845Z,102527.59
2024-01-11T12:11:28.811Z,102522.00
2024-01-11T12:13:59.302Z,102533.47
2024-01-11T12:16:28.782Z,102531.75
2024-01-11T12:18:57.715Z,102526.66
2024-01-11T12:21:27.426Z,102504.91
2024-01-11T12:23:55.904Z,102524.28
2024-01-11T12:26:24.873Z,102497.88
2024-01-11T12:28:55.182Z,102511.31
2024-01-11T12:31:24.410Z,102489.72
2024-01-11T12:33:53.508Z,102501.13
2024-01-11T12:36:22.871Z,102510.38
2024-01-11T12:38:53.230Z,102506.91
2024-01-11T12:41:24.922Z,102498.19
2024-01-11T12:43:55.250Z,102494.19
2024-01-11T12:46:23.971Z,102490.66
2024-01-11T12:48:53.139Z,102478.81
2024-01-11T12:51:23.538Z,102478.69
2024-01-11T12:53:54.584Z,102476.09
2024-01-11T12:56:24.581Z,102468.06
2024-01-11T12:59:07.961Z,102466.47
2024-01-11T13:01:36.580Z,102469.66
2024-01-11T13:04:05.223Z,102475.78
2024-01-11T13:06:35.559Z,102469.34
2024-01-11T13:09:05.384Z,102479.09
2024-01-11T13:11:34.183Z,102472.81
2024-01-11T13:14:07.931Z,102472.94
2024-01-11T13:16:36.890Z,102461.13
2024-01-11T13:19:16.477Z,102459.84
2024-01-11T13:21:53.282Z,102455.97
2024-01-11T13:24:21.406Z,102476.69
2024-01-11T13:26:49.713Z,102478.16
2024-01-11T13:29:19.528Z,102463.84
2024-01-11T13:31:48.111Z,102463.59
2024-01-11T13:34:16.768Z,102460.19
2024-01-11T13:36:45.182Z,102464.38
2024-01-11T13:39:13.591Z,102457.84
2024-01-11T13:41:42.297Z,102466.81
2024-01-11T13:44:10.794Z,102467.31
2024-01-11T13:46:40.483Z,102465.06
2024-01-11T13:49:09.337Z,102463.19
2024-01-11T13:51:46.404Z,102453.44
2024-01-11T13:54:23.421Z,102467.41
2024-01-11T13:56:52.892Z,102453.69
2024-01-11T13:59:21.380Z,102456.03
2024-01-11T14:01:51.431Z,102465.34
2024-01-11T14:04:20.117Z,102466.38
2024-01-11T14:06:48.336Z,102462.66
2024-01-11T14:09:17.475Z,102459.84
2024-01-11T14:11:46.449Z,102467.19
2024-01-11T14:14:15.082Z,102465.38
2024-01-11T14:16:43.970Z,102470.41
2024-01-11T14:19:14.455Z,102459.72
2024-01-11T14:21:43.642Z,102476.84
2024-01-11T14:24:14.460Z,102479.38
2024-01-11T14:26:44.686Z,102468.00
2024-01-11T14:29:13.238Z,102460.19
2024-01-11T14:31:42.178Z,102468.59
2024-01-11T14:34:11.744Z,102479.59
2024-01-11T14:36:41.995Z,102486.00
2024-01-11T14:39:11.483Z,102475.81
2024-01-11T14:41:40.198Z,102473.56
2024-01-11T14:44:08.802Z,102477.69
2024-01-11T14:46:40.148Z,102484.00
2024-01-11T14:49:09.569Z,102482.91
2024-01-11T14:51:38.630Z,102483.84
2024-01-11T14:54:08.560Z,102480.16
2024-01-11T14:56:39.144Z,102484.28
2024-01-11T14:59:07.757Z,102477.00
2024-01-11T15:01:37.298Z,102475.81
2024-01-11T15:04:06.377Z,102460.19
2024-01-11T15:06:35.009Z,102483.78
2024-01-11T15:09:04.058Z,102472.56
2024-01-11T15:11:37.369Z,102469.44
2024-01-11T15:14:06.501Z,102466.75
2024-01-11T15:16:36.257Z,102457.41
2024-01-11T15:19:05.681Z,102456.34
2024-01-11T15:21:37.430Z,102456.88
2024-01-11T15:24:07.233Z,102457.38
2024-01-11T15:26:37.391Z,102463.16
2024-01-11T15:29:07.080Z,102453.59
2024-01-11T15:31:39.946Z,102457.59
2024-01-11T15:34:08.957Z,102451.28
2024-01-11T15:36:37.616Z,102455.91
2024-01-11T15:39:16.391Z,102461.50
2024-01-11T15:41:51.283Z,102489.78
2024-01-11T15:44:19.958Z,102489.06
2024-01-11T15:46:48.322Z,102485.47
2024-01-11T15:49:16.735Z,102484.00
2024-01-11T15:51:45.165Z,102477.91
2024-01-11T15:54:13.871Z,102484.59
2024-01-11T15:56:42.570Z,102487.34
2024-01-11T15:59:12.498Z,102473.06
2024-01-11T16:01:51.258Z,102473.72
2024-01-11T16:04:29.590Z,102467.78
2024-01-11T16:06:58.621Z,102481.97
2024-01-11T16:09:27.697Z,102469.97
2024-01-11T16:12:02.220Z,102470.69
2024-01-11T16:14:35.307Z,102481.38
2024-01-11T16:17:04.078Z,102477.06
2024-01-11T16:19:34.525Z,102470.97
2024-01-11T16:22:03.085Z,102481.31
2024-01-11T16:24:31.276Z,102473.34
2024-01-11T16:27:00.392Z,102480.69
2024-01-11T16:29:28.799Z,102455.78
2024-01-11T16:31:59.742Z,102476.38
2024-01-11T16:34:29.103Z,102472.34
2024-01-11T16:36:57.804Z,102473.50
2024-01-11T16:39:26.419Z,102469.09
2024-01-11T16:41:55.311Z,102472.28
2024-01-11T16:44:23.978Z,102466.06
2024-01-11T16:46:53.626Z,102465.03
2024-01-11T16:49:24.657Z,102462.38
2024-01-11T16:51:53.240Z,102453.63
2024-01-11T16:54:21.519Z,102452.75
2024-01-11T16:56:49.175Z,102476.47
2024-01-11T16:59:19.118Z,102476.03
2024-01-11T17:01:48.208Z,102475.03
2024-01-11T17:04:16.877Z,102487.16
2024-01-11T17:06:46.656Z,102488.75
2024-01-11T17:09:15.057Z,102484.00
2024-01-11T17:11:43.873Z,102473.00
2024-01-11T17:14:12.778Z,102490.22
2024-01-11T17:16:41.139Z,102493.69
2024-01-11T17:19:08.282Z,102489.06
2024-01-11T17:21:36.711Z,102481.97
2024-01-11T17:24:07.176Z,102483.84
2024-01-11T17:26:36.459Z,102487.38
2024-01-11T17:29:04.811Z,102478.16
2024-01-11T17:31:33.940Z,102495.59
2024-01-11T17:34:02.744Z,102487.91
2024-01-11T17:36:31.021Z,102480.53
2024-01-11T17:39:01.178Z,102472.13
2024-01-11T17:41:31.309Z,102458.03
2024-01-11T17:43:59.718Z,102433.75
2024-01-11T17:46:29.441Z,102457.22
2024-01-11T17:48:58.175Z,102468.22
2024-01-11T17:51:27.143Z,102460.41
2024-01-11T17:53:55.355Z,102452.69
2024-01-11T17:56:24.373Z,102451.63
2024-01-11T17:58:54.397Z,102445.91
2024-01-11T18:01:23.526Z,102444.19
2024-01-11T18:03:52.257Z,102446.19
2024-01-11T18:06:21.159Z,102452.66
2024-01-11T18:08:49.910Z,102446.19
2024-01-11T18:11:18.570Z,102437.44
2024-01-11T18:13:47.516Z,102429.53
2024-01-11T18:16:17.327Z,102436.63
2024-01-11T18:18:47.928Z,102440.41
2024-01-11T18:21:17.428Z,102440.69
2024-01-11T18:23:46.207Z,102439.25
2024-01-11T18:26:15.860Z,102433.75
2024-01-11T18:28:45.706Z,102434.19
2024-01-11T18:31:18.674Z,102424.16
2024-01-11T18:33:48.393Z,102447.50
2024-01-11T18:36:18.953Z,102455.19
2024-01-11T18:38:47.425Z,102435.06
2024-01-11T18:41:16.094Z,102448.28
2024-01-11T18:43:44.265Z,102444.47
2024-01-11T18:46:12.597Z,102453.53
2024-01-11T18:48:42.502Z,102453.16
2024-01-11T18:51:10.965Z,102449.69
2024-01-11T18:53:41.582Z,102446.28
2024-01-11T18:56:14.778Z,102455.72
2024-01-11T18:58:43.084Z,102445.63
2024-01-11T19:01:11.568Z,102450.25
2024-01-11T19:03:41.132Z,102451.56
2024-01-11T19:06:11.074Z,102458.97
2024-01-11T19:08:39.636Z,102460.50
2024-01-11T19:11:08.726Z,102442.09
2024-01-11T19:13:36.935Z,102445.47
2024-01-11T19:16:05.942Z,102463.88
2024-01-11T19:18:34.515Z,102466.84
2024-01-11T19:21:03.687Z,102468.44
2024-01-11T19:23:35.098Z,102456.19
2024-01-11T19:26:03.965Z,102452.03
2024-01-11T19:28:32.417Z,102465.56
2024-01-11T19:31:00.699Z,102463.53
2024-01-11T19:33:29.793Z,102473.97
2024-01-11T19:35:58.797Z,102481.16
2024-01-11T19:38:27.313Z,102487.00
2024-01-11T19:40:57.292Z,102475.63
2024-01-11T19:43:25.789Z,102481.19
2024-01-11T19:45:56.193Z,102479.28
2024-01-11T19:48:25.471Z,102490.75
2024-01-11T19:50:54.358Z,102488.34
2024-01-11T19:53:22.998Z,102506.44
2024-01-11T19:55:51.258Z,102512.06
2024-01-11T19:58:20.937Z,102499.09
2024-01-11T20:00:49.471Z,102481.72
2024-01-11T20:03:17.726Z,102502.06
2024-01-11T20:05:45.999Z,102501.91
2024-01-11T20:08:14.631Z,102507.94
2024-01-11T20:10:43.793Z,102501.75
2024-01-11T20:13:11.997Z,102499.22
2024-01-11T20:15:41.594Z,102509.59
2024-01-11T20:18:10.323Z,102511.31
2024-01-11T20:20:38.805Z,102510.63
2024-01-11T20:23:07.452Z,102515.09
2024-01-11T20:25:35.853Z,102510.47
2024-01-11T20:28:04.780Z,102507.41
2024-01-11T20:30:35.528Z,102509.31
2024-01-11T20:33:05.895Z,102502.44
2024-01-11T20:35:34.805Z,102510.31
2024-01-11T20:38:03.986Z,102493.09
2024-01-11T20:40:32.165Z,102524.69
2024-01-11T20:43:01.162Z,102516.47
2024-01-11T20:45:29.259Z,102517.78
2024-01-11T20:47:57.891Z,102520.09
2024-01-11T20:50:27.747Z,102515.59
2024-01-11T20:52:56.357Z,102516.63
2024-01-11T20:55:24.763Z,102499.88
2024-01-11T20:57:53.620Z,102508.59
2024-01-11T21:00:22.903Z,102516.53
2024-01-11T21:02:52.264Z,102519.59
2024-01-11T21:05:21.783Z,102512.72
2024-01-11T21:07:54.567Z,102520.75
2024-01-11T21:10:25.439Z,102514.03
2024-01-11T21:12:53.892Z,102521.25
2024-01-11T21:15:22.180Z,102519.09
2024-01-11T21:17:50.961Z,102532.59
2024-01-11T21:20:19.845Z,102531.88
2024-01-11T21:22:48.698Z,102520.75
2024-01-11T21:25:18.925Z,102520.28
2024-01-11T21:27:47.595Z,102522.69
2024-01-11T21:30:17.069Z,102527.13
2024-01-11T21:32:45.835Z,102510.31
2024-01-11T21:35:19.218Z,102529.56
2024-01-11T21:37:50.722Z,102524.13
2024-01-11T21:40:20.793Z,102527.38
2024-01-11T21:42:49.154Z,102527.22
2024-01-11T21:45:18.032Z,102525.66
2024-01-11T21:47:48.382Z,102530.06
2024-01-11T21:50:18.184Z,102522.69
2024-01-11T21:52:47.425Z,102524.56
2024-01-11T21:55:16.167Z,102526.06
2024-01-11T21:57:46.183Z,102532.28
2024-01-11T22:00:15.666Z,102504.22
2024-01-11T22:02:44.081Z,102522.59
2024-01-11T22:05:12.348Z,102526.63
2024-01-11T22:07:40.524Z,102529.22
2024-01-11T22:10:10.589Z,102513.28
2024-01-11T22:12:38.974Z,102509.09
2024-01-11T22:15:10.958Z,102519.91
2024-01-11T22:17:38.984Z,102522.53
2024-01-11T22:20:08.775Z,102526.03
2024-01-11T22:22:37.410Z,102529.31
2024-01-11T22:25:06.103Z,102520.66
2024-01-11T22:27:34.654Z,102513.84
2024-01-11T22:30:05.211Z,102528.84
2024-01-11T22:32:36.527Z,102535.63
2024-01-11T22:35:05.542Z,102536.25
2024-01-11T22:37:33.832Z,102540.19
2024-01-11T22:40:02.120Z,102535.94
2024-01-11T22:42:31.079Z,102542.56
2024-01-11T22:44:59.881Z,102534.38
2024-01-11T22:47:28.546Z,102530.19
2024-01-11T22:49:58.142Z,102531.19
2024-01-11T22:52:26.770Z,102526.78
2024-01-11T22:54:55.238Z,102525.84
2024-01-11T22:57:23.380Z,102524.97
2024-01-11T22:59:51.665Z,102529.31
2024-01-11T23:02:20.316Z,102528.50
2024-01-11T23:04:48.845Z,102523.25
2024-01-11T23:07:18.581Z,102513.06
2024-01-11T23:09:47.546Z,102511.03
2024-01-11T23:12:15.957Z,102507.69
2024-01-11T23:14:44.109Z,102513.88
2024-01-11T23:17:12.328Z,102512.19
2024-01-11T23:19:40.696Z,102503.19
2024-01-11T23:22:08.941Z,102502.19
2024-01-11T23:24:38.404Z,102507.53
2024-01-11T23:27:07.107Z,102507.53
2024-01-11T23:29:35.693Z,102504.06
2024-01-11T23:32:04.065Z,102507.53
2024-01-11T23:34:32.605Z,102508.19
2024-01-11T23:37:00.957Z,102502.03
2024-01-11T23:39:29.029Z,102507.22
2024-01-11T23:41:58.648Z,102504.56
2024-01-11T23:44:27.004Z,102503.59
2024-01-11T23:46:55.276Z,102517.31
2024-01-11T23:49:23.637Z,102499.25
2024-01-11T23:51:51.798Z,102500.69
2024-01-11T23:54:20.168Z,102504.09
2024-01-11T23:56:48.394Z,102496.19
2024-01-11T23:59:20.265Z,102497.91
